createdAt,value
2018-08-12T00:01:59.090Z,5.17
2018-08-12T00:04:27.454Z,4.03
2018-08-12T00:06:56.557Z,4.03
2018-08-12T00:09:24.946Z,4.37
2018-08-12T00:11:53.277Z,3.37
2018-08-12T00:14:21.616Z,6.47
2018-08-12T00:16:49.971Z,5.13
2018-08-12T00:19:19.375Z,2.10
2018-08-12T00:21:47.713Z,2.67
2018-08-12T00:24:16.195Z,4.07
2018-08-12T00:26:44.517Z,3.53
2018-08-12T00:29:13.639Z,3.77
2018-08-12T00:31:42.024Z,4.77
2018-08-12T00:34:10.369Z,3.27
2018-08-12T00:36:39.489Z,4.37
2018-08-12T00:39:07.987Z,4.83
2018-08-12T00:41:36.308Z,2.90
2018-08-12T00:44:04.739Z,4.73
2018-08-12T00:46:33.093Z,4.97
2018-08-12T00:49:01.429Z,3.63
2018-08-12T00:51:29.769Z,3.97
2018-08-12T00:53:58.085Z,3.00
2018-08-12T00:56:26.532Z,4.93
2018-08-12T00:58:54.871Z,5.47
2018-08-12T01:01:23.208Z,4.10
2018-08-12T01:03:51.556Z,2.70
2018-08-12T01:06:20.030Z,3.13
2018-08-12T01:08:49.240Z,2.90
2018-08-12T01:11:17.589Z,4.00
2018-08-12T01:13:46.686Z,4.43
2018-08-12T01:16:15.104Z,5.10
2018-08-12T01:18:43.471Z,5.07
2018-08-12T01:21:11.821Z,4.33
2018-08-12T01:23:40.207Z,3.53
2018-08-12T01:26:08.546Z,4.00
2018-08-12T01:28:36.987Z,4.87
2018-08-12T01:31:05.309Z,4.17
2018-08-12T01:33:33.637Z,4.90
2018-08-12T01:36:02.098Z,3.47
2018-08-12T01:38:30.426Z,5.20
2018-08-12T01:40:58.855Z,3.87
2018-08-12T01:43:27.955Z,3.33
2018-08-12T01:45:57.066Z,5.47
2018-08-12T01:48:25.453Z,5.13
2018-08-12T01:50:53.805Z,2.83
2018-08-12T01:53:22.890Z,3.90
2018-08-12T01:55:51.301Z,3.23
2018-08-12T01:58:19.659Z,2.63
2018-08-12T02:00:48.792Z,2.97
2018-08-12T02:03:17.116Z,3.00
2018-08-12T02:05:45.473Z,2.40
2018-08-12T02:08:13.917Z,4.87
2018-08-12T02:10:42.259Z,3.60
2018-08-12T02:13:10.593Z,3.60
2018-08-12T02:15:39.096Z,3.40
2018-08-12T02:18:07.620Z,4.40
2018-08-12T02:20:36.752Z,2.80
2018-08-12T02:23:05.302Z,5.50
2018-08-12T02:25:33.609Z,2.90
2018-08-12T02:28:02.018Z,2.63
2018-08-12T02:30:30.348Z,2.47
2018-08-12T02:32:58.747Z,3.17
2018-08-12T02:35:27.150Z,4.33
2018-08-12T02:37:55.482Z,4.87
2018-08-12T02:40:23.840Z,2.13
2018-08-12T02:42:52.342Z,4.13
2018-08-12T02:45:21.477Z,1.97
2018-08-12T02:47:49.810Z,2.27
2018-08-12T02:50:18.944Z,3.13
2018-08-12T02:52:47.316Z,2.70
2018-08-12T02:55:15.673Z,2.33
2018-08-12T02:57:44.064Z,4.03
2018-08-12T03:00:12.426Z,2.13
2018-08-12T03:02:41.549Z,4.33
2018-08-12T03:05:09.972Z,3.10
2018-08-12T03:07:38.233Z,3.80
2018-08-12T03:10:06.589Z,5.13
2018-08-12T03:12:34.964Z,4.50
2018-08-12T03:15:03.636Z,4.67
2018-08-12T03:17:31.971Z,4.03
2018-08-12T03:20:00.331Z,3.77
2018-08-12T03:22:29.316Z,6.73
2018-08-12T03:24:57.587Z,2.63
2018-08-12T03:27:25.924Z,2.67
2018-08-12T03:29:54.355Z,4.33
2018-08-12T03:32:22.694Z,2.43
2018-08-12T03:34:52.304Z,3.10
2018-08-12T03:37:21.625Z,1.90
2018-08-12T03:39:50.004Z,2.93
2018-08-12T03:42:18.326Z,3.23
2018-08-12T03:44:46.682Z,4.63
2018-08-12T03:47:15.033Z,4.83
2018-08-12T03:49:43.386Z,3.13
2018-08-12T03:52:12.514Z,3.13
2018-08-12T03:54:40.910Z,2.27
2018-08-12T03:57:09.265Z,2.93
2018-08-12T03:59:37.592Z,3.67
2018-08-12T04:02:05.934Z,2.93
2018-08-12T04:04:34.268Z,3.77
2018-08-12T04:07:02.619Z,3.27
2018-08-12T04:09:30.934Z,3.47
2018-08-12T04:11:59.314Z,3.17
2018-08-12T04:14:27.662Z,3.30
2018-08-12T04:16:56.019Z,4.00
2018-08-12T04:19:24.362Z,3.87
2018-08-12T04:21:52.767Z,4.47
2018-08-12T04:24:21.090Z,3.23
2018-08-12T04:26:49.523Z,4.77
2018-08-12T04:29:17.906Z,4.97
2018-08-12T04:31:46.259Z,3.00
2018-08-12T04:34:15.338Z,2.73
2018-08-12T04:36:43.692Z,3.50
2018-08-12T04:39:12.019Z,3.57
2018-08-12T04:41:41.090Z,2.77
2018-08-12T04:44:09.482Z,2.73
2018-08-12T04:46:38.622Z,3.03
2018-08-12T04:49:06.955Z,2.67
2018-08-12T04:51:36.062Z,3.07
2018-08-12T04:54:05.172Z,2.40
2018-08-12T04:56:33.557Z,4.10
2018-08-12T04:59:01.902Z,3.00
2018-08-12T05:01:30.998Z,4.87
2018-08-12T05:04:00.124Z,2.37
2018-08-12T05:06:28.552Z,3.87
2018-08-12T05:08:56.972Z,5.10
2018-08-12T05:11:26.074Z,2.50
2018-08-12T05:13:54.453Z,2.33
2018-08-12T05:16:22.756Z,5.27
2018-08-12T05:18:51.152Z,4.83
2018-08-12T05:21:19.530Z,3.27
2018-08-12T05:23:47.946Z,2.60
2018-08-12T05:26:17.070Z,3.03
2018-08-12T05:28:45.404Z,2.87
2018-08-12T05:31:13.766Z,3.33
2018-08-12T05:33:42.085Z,2.60
2018-08-12T05:36:10.459Z,4.07
2018-08-12T05:38:38.754Z,2.57
2018-08-12T05:41:07.155Z,3.10
2018-08-12T05:43:35.582Z,3.90
2018-08-12T05:46:03.921Z,2.40
2018-08-12T05:48:32.240Z,2.87
2018-08-12T05:51:00.588Z,2.83
2018-08-12T05:53:28.872Z,3.33
2018-08-12T05:55:57.207Z,2.83
2018-08-12T05:58:25.544Z,3.97
2018-08-12T06:00:53.868Z,3.80
2018-08-12T06:03:22.187Z,2.83
2018-08-12T06:05:50.590Z,4.63
2018-08-12T06:08:18.952Z,3.20
2018-08-12T06:10:47.303Z,2.90
2018-08-12T06:13:15.809Z,4.57
2018-08-12T06:15:44.153Z,3.65
2018-08-12T06:18:12.485Z,3.10
2018-08-12T06:20:40.862Z,3.27
2018-08-12T06:23:09.214Z,2.93
2018-08-12T06:25:37.575Z,2.33
2018-08-12T06:28:06.638Z,3.50
2018-08-12T06:30:35.742Z,5.63
2018-08-12T06:33:04.837Z,2.13
2018-08-12T06:35:33.981Z,4.03
2018-08-12T06:38:02.352Z,3.17
2018-08-12T06:40:30.690Z,3.33
2018-08-12T06:42:59.807Z,5.17
2018-08-12T06:45:28.149Z,2.67
2018-08-12T06:47:57.220Z,4.07
2018-08-12T06:50:25.560Z,3.53
2018-08-12T06:52:54.245Z,5.50
2018-08-12T06:55:22.600Z,4.13
2018-08-12T06:57:51.691Z,7.47
2018-08-12T07:00:20.194Z,5.10
2018-08-12T07:02:49.293Z,3.63
2018-08-12T07:05:19.249Z,3.30
2018-08-12T07:07:47.819Z,4.63
2018-08-12T07:10:16.128Z,5.27
2018-08-12T07:12:44.990Z,3.73
2018-08-12T07:15:13.321Z,3.87
2018-08-12T07:17:41.651Z,3.67
2018-08-12T07:20:10.002Z,3.27
2018-08-12T07:22:38.386Z,3.80
2018-08-12T07:25:07.619Z,3.77
2018-08-12T07:27:35.955Z,4.90
2018-08-12T07:30:04.299Z,4.07
2018-08-12T07:32:32.640Z,4.03
2018-08-12T07:35:00.989Z,4.53
2018-08-12T07:37:29.322Z,5.00
2018-08-12T07:39:57.863Z,4.30
2018-08-12T07:42:26.187Z,3.53
2018-08-12T07:44:54.545Z,6.50
2018-08-12T07:47:22.850Z,3.47
2018-08-12T07:49:51.303Z,5.90
2018-08-12T07:52:19.775Z,5.17
2018-08-12T07:54:48.115Z,3.53
2018-08-12T07:57:17.190Z,5.03
2018-08-12T07:59:45.598Z,4.37
2018-08-12T08:02:14.688Z,4.33
2018-08-12T08:04:43.807Z,4.43
2018-08-12T08:07:12.134Z,3.03
2018-08-12T08:09:40.475Z,4.05
2018-08-12T08:12:08.924Z,6.73
2018-08-12T08:14:38.262Z,3.80
2018-08-12T08:17:06.625Z,6.00
2018-08-12T08:19:34.957Z,5.97
2018-08-12T08:22:03.330Z,4.82
2018-08-12T08:24:31.705Z,2.95
2018-08-12T08:27:00.248Z,4.12
2018-08-12T08:29:28.630Z,4.07
2018-08-12T08:31:57.197Z,3.53
2018-08-12T08:34:25.488Z,4.95
2018-08-12T08:36:53.843Z,3.47
2018-08-12T08:39:22.932Z,2.75
2018-08-12T08:41:52.049Z,4.30
2018-08-12T08:44:20.415Z,3.55
2018-08-12T08:46:49.507Z,5.90
2018-08-12T08:49:18.749Z,4.57
2018-08-12T08:51:47.107Z,2.90
2018-08-12T08:54:15.455Z,5.28
2018-08-12T08:56:44.576Z,4.20
2018-08-12T08:59:12.928Z,4.72
2018-08-12T09:01:41.249Z,4.47
2018-08-12T09:04:09.607Z,5.80
2018-08-12T09:06:37.938Z,6.85
2018-08-12T09:09:06.706Z,4.25
2018-08-12T09:11:35.101Z,5.22
2018-08-12T09:14:05.342Z,5.70
2018-08-12T09:16:33.670Z,6.28
2018-08-12T09:19:02.006Z,6.72
2018-08-12T09:21:30.420Z,8.35
2018-08-12T09:23:58.856Z,5.97
2018-08-12T09:26:28.309Z,8.77
2018-08-12T09:28:57.394Z,7.75
2018-08-12T09:31:25.969Z,7.80
2018-08-12T09:33:55.095Z,7.18
2018-08-12T09:36:23.450Z,10.23
2018-08-12T09:38:51.883Z,5.43
2018-08-12T09:41:20.340Z,7.43
2018-08-12T09:43:48.669Z,5.93
2018-08-12T09:46:17.830Z,4.90
2018-08-12T09:48:46.238Z,5.10
2018-08-12T09:51:14.598Z,6.62
2018-08-12T09:53:42.922Z,5.82
2018-08-12T09:56:11.251Z,3.45
2018-08-12T09:58:39.587Z,2.75
2018-08-12T10:01:07.937Z,3.15
2018-08-12T10:03:37.055Z,4.55
2018-08-12T10:06:05.477Z,3.28
2018-08-12T10:08:34.747Z,2.72
2018-08-12T10:11:03.117Z,2.05
2018-08-12T10:13:31.714Z,3.33
2018-08-12T10:16:00.059Z,3.75
2018-08-12T10:18:28.400Z,3.22
2018-08-12T10:20:56.728Z,2.25
2018-08-12T10:23:25.107Z,4.20
2018-08-12T10:25:54.204Z,2.92
2018-08-12T10:28:23.334Z,4.45
2018-08-12T10:30:51.687Z,3.97
2018-08-12T10:33:20.032Z,3.83
2018-08-12T10:35:48.359Z,3.28
2018-08-12T10:38:16.722Z,2.22
2018-08-12T10:40:45.858Z,3.35
2018-08-12T10:43:14.199Z,3.03
2018-08-12T10:45:42.567Z,2.95
2018-08-12T10:48:11.670Z,3.62
2018-08-12T10:50:40.841Z,4.15
2018-08-12T10:53:09.340Z,3.33
2018-08-12T10:55:38.707Z,3.45
2018-08-12T10:58:07.029Z,3.85
2018-08-12T11:00:36.140Z,2.83
2018-08-12T11:03:04.510Z,3.45
2018-08-12T11:05:33.610Z,2.12
2018-08-12T11:08:01.949Z,2.08
2018-08-12T11:10:30.316Z,3.35
2018-08-12T11:12:58.629Z,1.92
2018-08-12T11:15:27.741Z,2.62
2018-08-12T11:17:56.837Z,2.72
2018-08-12T11:20:25.240Z,2.50
2018-08-12T11:22:53.683Z,1.85
2018-08-12T11:25:22.774Z,2.30
2018-08-12T11:27:51.889Z,1.10
2018-08-12T11:30:20.255Z,1.95
2018-08-12T11:32:49.378Z,1.90
2018-08-12T11:35:17.703Z,1.70
2018-08-12T11:37:46.063Z,1.17
2018-08-12T11:40:14.387Z,1.60
2018-08-12T11:42:43.543Z,2.17
2018-08-12T11:45:11.922Z,2.12
2018-08-12T11:47:40.397Z,2.47
2018-08-12T11:50:08.734Z,2.33
2018-08-12T11:52:37.132Z,2.10
2018-08-12T11:55:05.467Z,2.30
2018-08-12T11:57:34.574Z,2.67
2018-08-12T12:00:03.717Z,1.87
2018-08-12T12:02:32.064Z,1.65
2018-08-12T12:05:00.425Z,2.17
2018-08-12T12:07:29.606Z,2.87
2018-08-12T12:09:57.960Z,3.10
2018-08-12T12:12:26.308Z,1.58
2018-08-12T12:14:54.787Z,1.87
2018-08-12T12:17:23.892Z,1.87
2018-08-12T12:19:52.440Z,1.20
2018-08-12T12:22:20.897Z,1.30
2018-08-12T12:24:49.669Z,1.55
2018-08-12T12:27:18.100Z,1.95
2018-08-12T12:29:47.198Z,3.55
2018-08-12T12:32:17.364Z,1.10
2018-08-12T12:34:45.809Z,1.85
2018-08-12T12:37:14.913Z,1.42
2018-08-12T12:39:43.291Z,1.77
2018-08-12T12:42:11.728Z,0.90
2018-08-12T12:44:40.050Z,1.67
2018-08-12T12:47:08.415Z,1.95
2018-08-12T12:49:37.586Z,1.30
2018-08-12T12:52:05.931Z,2.50
2018-08-12T12:54:34.294Z,1.50
2018-08-12T12:57:02.638Z,1.85
2018-08-12T12:59:31.759Z,1.90
2018-08-12T13:02:00.142Z,1.35
2018-08-12T13:04:28.511Z,1.60
2018-08-12T13:06:56.918Z,2.53
2018-08-12T13:09:25.488Z,1.90
2018-08-12T13:11:53.864Z,2.33
2018-08-12T13:14:23.109Z,2.10
2018-08-12T13:16:51.572Z,1.25
2018-08-12T13:19:21.164Z,1.10
2018-08-12T13:21:49.526Z,1.67
2018-08-12T13:24:18.160Z,2.00
2018-08-12T13:26:46.842Z,1.60
2018-08-12T13:29:15.347Z,1.35
2018-08-12T13:31:43.684Z,2.83
2018-08-12T13:34:12.167Z,1.48
2018-08-12T13:36:40.609Z,2.78
2018-08-12T13:39:09.756Z,1.58
2018-08-12T13:41:38.188Z,3.12
2018-08-12T13:44:07.437Z,1.08
2018-08-12T13:46:35.896Z,1.17
2018-08-12T13:49:04.325Z,1.50
2018-08-12T13:51:32.674Z,2.55
2018-08-12T13:54:01.040Z,3.80
2018-08-12T13:56:29.572Z,1.50
2018-08-12T13:58:58.008Z,1.10
2018-08-12T14:01:26.333Z,1.10
2018-08-12T14:03:54.778Z,2.10
2018-08-12T14:06:23.160Z,0.80
2018-08-12T14:08:52.543Z,1.40
2018-08-12T14:11:20.926Z,1.62
2018-08-12T14:13:49.334Z,1.30
2018-08-12T14:16:17.628Z,1.40
2018-08-12T14:18:46.036Z,1.87
2018-08-12T14:21:14.416Z,1.65
2018-08-12T14:23:42.710Z,1.20
2018-08-12T14:26:11.107Z,1.17
2018-08-12T14:28:39.492Z,1.70
2018-08-12T14:31:07.839Z,1.80
2018-08-12T14:33:36.839Z,1.10
2018-08-12T14:36:06.052Z,2.87
2018-08-12T14:38:34.427Z,1.50
2018-08-12T14:41:02.800Z,1.40
2018-08-12T14:43:31.132Z,2.90
2018-08-12T14:45:59.477Z,2.70
2018-08-12T14:48:27.960Z,1.42
2018-08-12T14:50:56.342Z,3.05
2018-08-12T14:53:24.754Z,1.45
2018-08-12T14:55:53.074Z,1.48
2018-08-12T14:58:21.473Z,1.05
2018-08-12T15:00:49.830Z,2.53
2018-08-12T15:03:18.212Z,1.95
2018-08-12T15:05:46.608Z,2.47
2018-08-12T15:08:14.966Z,1.20
2018-08-12T15:10:43.282Z,1.50
2018-08-12T15:13:11.753Z,1.52
2018-08-12T15:15:40.175Z,1.33
2018-08-12T15:18:09.330Z,1.67
2018-08-12T15:20:37.674Z,1.52
2018-08-12T15:23:06.084Z,1.40
2018-08-12T15:25:34.440Z,2.55
2018-08-12T15:28:02.958Z,1.87
2018-08-12T15:30:31.426Z,2.05
2018-08-12T15:32:59.808Z,2.05
2018-08-12T15:35:28.161Z,3.05
2018-08-12T15:37:57.313Z,1.48
2018-08-12T15:40:25.669Z,1.10
2018-08-12T15:42:53.989Z,1.58
2018-08-12T15:45:22.405Z,1.42
2018-08-12T15:47:50.800Z,1.52
2018-08-12T15:50:19.193Z,3.08
2018-08-12T15:52:47.652Z,1.10
2018-08-12T15:55:15.991Z,5.03
2018-08-12T15:57:45.131Z,3.55
2018-08-12T16:00:13.504Z,2.33
2018-08-12T16:02:41.888Z,2.15
2018-08-12T16:05:10.496Z,1.50
2018-08-12T16:07:38.829Z,1.62
2018-08-12T16:10:07.197Z,0.80
2018-08-12T16:12:35.516Z,2.20
2018-08-12T16:15:03.861Z,1.60
2018-08-12T16:17:33.167Z,2.95
2018-08-12T16:20:02.284Z,1.33
2018-08-12T16:22:30.635Z,4.12
2018-08-12T16:24:59.012Z,2.08
2018-08-12T16:27:27.361Z,1.90
2018-08-12T16:29:55.711Z,2.08
2018-08-12T16:32:24.026Z,4.30
2018-08-12T16:34:53.151Z,1.80
2018-08-12T16:37:21.511Z,1.98
2018-08-12T16:39:49.948Z,1.75
2018-08-12T16:42:19.041Z,2.05
2018-08-12T16:44:47.395Z,3.28
2018-08-12T16:47:15.727Z,1.58
2018-08-12T16:49:44.194Z,1.20
2018-08-12T16:52:12.534Z,2.90
2018-08-12T16:54:41.253Z,2.10
2018-08-12T16:57:09.602Z,2.95
2018-08-12T16:59:37.977Z,1.60
2018-08-12T17:02:06.328Z,1.55
2018-08-12T17:04:35.467Z,2.85
2018-08-12T17:07:03.828Z,1.50
2018-08-12T17:09:32.409Z,4.18
2018-08-12T17:12:00.792Z,2.17
2018-08-12T17:14:29.123Z,1.70
2018-08-12T17:16:57.492Z,2.10
2018-08-12T17:19:25.824Z,2.37
2018-08-12T17:21:54.210Z,2.30
2018-08-12T17:24:22.545Z,1.98
2018-08-12T17:26:50.884Z,1.87
2018-08-12T17:29:19.758Z,7.20
2018-08-12T17:31:48.131Z,17.62
2018-08-12T17:34:16.492Z,11.12
2018-08-12T17:36:45.610Z,5.95
2018-08-12T17:39:13.991Z,3.12
2018-08-12T17:41:42.364Z,2.62
2018-08-12T17:44:10.769Z,2.03
2018-08-12T17:46:39.126Z,3.10
2018-08-12T17:49:07.973Z,2.45
2018-08-12T17:51:36.354Z,1.75
2018-08-12T17:54:04.754Z,1.40
2018-08-12T17:56:34.028Z,2.30
2018-08-12T17:59:02.469Z,3.42
2018-08-12T18:01:30.856Z,1.60
2018-08-12T18:03:59.214Z,1.50
2018-08-12T18:06:27.616Z,3.60
2018-08-12T18:08:55.945Z,2.60
2018-08-12T18:11:25.978Z,4.15
2018-08-12T18:13:54.308Z,3.83
2018-08-12T18:16:22.655Z,2.10
2018-08-12T18:18:51.103Z,1.90
2018-08-12T18:21:20.244Z,3.25
2018-08-12T18:23:48.590Z,13.93
2018-08-12T18:26:17.043Z,23.67
2018-08-12T18:28:45.450Z,14.27
2018-08-12T18:31:13.889Z,10.20
2018-08-12T18:33:43.024Z,6.32
2018-08-12T18:36:12.183Z,3.58
2018-08-12T18:38:40.698Z,3.40
2018-08-12T18:41:09.069Z,3.10
2018-08-12T18:43:37.456Z,2.45
2018-08-12T18:46:06.074Z,3.47
2018-08-12T18:48:35.226Z,1.92
2018-08-12T18:51:03.614Z,2.80
2018-08-12T18:53:31.994Z,1.67
2018-08-12T18:56:00.470Z,8.32
2018-08-12T18:58:28.868Z,4.28
2018-08-12T19:00:57.406Z,3.60
2018-08-12T19:03:25.733Z,2.62
2018-08-12T19:05:54.850Z,2.30
2018-08-12T19:08:23.225Z,2.10
2018-08-12T19:10:52.354Z,3.20
2018-08-12T19:13:20.731Z,2.17
2018-08-12T19:15:49.074Z,1.90
2018-08-12T19:18:18.180Z,2.40
2018-08-12T19:20:46.530Z,3.97
2018-08-12T19:23:14.894Z,2.87
2018-08-12T19:25:43.355Z,2.10
2018-08-12T19:28:11.754Z,2.47
2018-08-12T19:30:40.150Z,1.80
2018-08-12T19:33:08.516Z,2.17
2018-08-12T19:35:36.963Z,2.22
2018-08-12T19:38:05.322Z,1.95
2018-08-12T19:40:33.738Z,2.00
2018-08-12T19:43:02.200Z,2.65
2018-08-12T19:45:30.796Z,4.32
2018-08-12T19:47:59.151Z,4.28
2018-08-12T19:50:27.493Z,2.42
2018-08-12T19:52:55.836Z,3.40
2018-08-12T19:55:24.287Z,4.72
2018-08-12T19:57:52.626Z,3.90
2018-08-12T20:00:20.985Z,3.58
2018-08-12T20:02:49.408Z,2.67
2018-08-12T20:05:18.655Z,3.30
2018-08-12T20:07:47.014Z,3.35
2018-08-12T20:10:15.385Z,2.72
2018-08-12T20:12:43.784Z,3.37
2018-08-12T20:15:12.158Z,2.78
2018-08-12T20:17:40.558Z,3.67
2018-08-12T20:20:08.926Z,2.22
2018-08-12T20:22:37.326Z,10.75
2018-08-12T20:25:05.668Z,9.40
2018-08-12T20:27:34.224Z,6.57
2018-08-12T20:30:03.343Z,3.87
2018-08-12T20:32:32.453Z,2.55
2018-08-12T20:35:00.837Z,2.22
2018-08-12T20:37:29.160Z,3.15
2018-08-12T20:39:58.283Z,2.03
2018-08-12T20:42:26.625Z,2.12
2018-08-12T20:44:54.964Z,2.08
2018-08-12T20:47:23.316Z,2.47
2018-08-12T20:49:52.412Z,3.00
2018-08-12T20:52:20.774Z,2.20
2018-08-12T20:54:49.868Z,2.25
2018-08-12T20:57:18.980Z,1.92
2018-08-12T20:59:48.072Z,2.05
2018-08-12T21:02:17.182Z,2.08
2018-08-12T21:04:45.521Z,2.05
2018-08-12T21:07:13.928Z,10.80
2018-08-12T21:09:43.053Z,7.72
2018-08-12T21:12:11.542Z,4.20
2018-08-12T21:14:39.759Z,3.03
2018-08-12T21:17:08.229Z,1.75
2018-08-12T21:19:36.589Z,2.58
2018-08-12T21:22:04.920Z,1.85
2018-08-12T21:24:34.192Z,2.45
2018-08-12T21:27:02.552Z,2.37
2018-08-12T21:29:30.903Z,3.15
2018-08-12T21:31:59.223Z,1.85
2018-08-12T21:34:27.572Z,2.50
2018-08-12T21:36:55.934Z,2.42
2018-08-12T21:39:24.418Z,2.55
2018-08-12T21:41:53.358Z,2.78
2018-08-12T21:44:21.702Z,1.67
2018-08-12T21:46:50.040Z,2.00
2018-08-12T21:49:19.158Z,1.85
2018-08-12T21:51:47.639Z,1.80
2018-08-12T21:54:16.119Z,1.65
2018-08-12T21:56:44.450Z,1.98
2018-08-12T21:59:12.811Z,2.05
2018-08-12T22:01:41.184Z,2.37
2018-08-12T22:04:09.579Z,3.05
2018-08-12T22:06:38.249Z,2.10
2018-08-12T22:09:06.617Z,2.62
2018-08-12T22:11:35.017Z,2.65
2018-08-12T22:14:03.397Z,2.87
2018-08-12T22:16:32.369Z,2.30
2018-08-12T22:19:00.705Z,2.00
2018-08-12T22:21:29.107Z,2.37
2018-08-12T22:23:57.435Z,1.77
2018-08-12T22:26:25.811Z,2.67
2018-08-12T22:28:54.219Z,5.32
2018-08-12T22:31:22.654Z,2.20
2018-08-12T22:33:51.018Z,1.80
2018-08-12T22:36:19.403Z,2.47
2018-08-12T22:38:47.725Z,2.67
2018-08-12T22:41:16.195Z,1.80
2018-08-12T22:43:44.535Z,3.42
2018-08-12T22:46:13.016Z,1.90
2018-08-12T22:48:41.456Z,4.30
2018-08-12T22:51:09.819Z,2.20
2018-08-12T22:53:38.154Z,2.40
2018-08-12T22:56:06.550Z,1.80
2018-08-12T22:58:34.914Z,3.23
2018-08-12T23:01:03.262Z,3.33
2018-08-12T23:03:32.417Z,2.33
2018-08-12T23:06:00.748Z,2.83
2018-08-12T23:08:29.142Z,2.60
2018-08-12T23:10:57.554Z,2.95
2018-08-12T23:13:25.930Z,1.43
2018-08-12T23:19:00.724Z,2.50
2018-08-12T23:21:29.863Z,2.80
2018-08-12T23:23:58.244Z,3.95
2018-08-12T23:26:26.638Z,2.37
2018-08-12T23:28:55.013Z,1.70
2018-08-12T23:31:23.358Z,2.47
2018-08-12T23:33:51.753Z,2.17
2018-08-12T23:36:20.076Z,2.20
2018-08-12T23:38:48.419Z,2.63
2018-08-12T23:41:16.760Z,3.27
2018-08-12T23:43:45.928Z,2.10
2018-08-12T23:46:14.253Z,2.50
2018-08-12T23:48:42.621Z,1.87
2018-08-12T23:51:11.708Z,2.70
2018-08-12T23:53:40.835Z,2.10
2018-08-12T23:56:09.198Z,2.30
2018-08-12T23:58:37.585Z,2.30
